createdAt,value
2022-08-05T00:00:31.293Z,12.70
2022-08-05T00:03:03.641Z,12.70
2022-08-05T00:06:06.585Z,12.80
2022-08-05T00:08:35.947Z,12.80
2022-08-05T00:11:23.892Z,13.00
2022-08-05T00:14:00.606Z,13.10
2022-08-05T00:16:35.500Z,13.30
2022-08-05T00:19:07.532Z,13.30
2022-08-05T00:21:42.666Z,13.40
2022-08-05T00:24:18.864Z,13.40
2022-08-05T00:26:52.110Z,13.40
2022-08-05T00:29:54.863Z,13.30
2022-08-05T00:32:29.162Z,13.40
2022-08-05T00:35:06.871Z,13.40
2022-08-05T00:37:52.993Z,13.30
2022-08-05T00:40:29.472Z,13.30
2022-08-05T00:43:07.487Z,13.20
2022-08-05T00:45:43.863Z,13.20
2022-08-05T00:48:17.661Z,13.10
2022-08-05T00:50:58.122Z,13.00
2022-08-05T00:54:00.575Z,13.00
2022-08-05T00:56:22.701Z,13.00
2022-08-05T00:58:55.010Z,13.10
2022-08-05T01:01:42.753Z,13.20
2022-08-05T01:04:26.702Z,13.40
2022-08-05T01:06:57.831Z,13.50
2022-08-05T01:09:30.447Z,13.50
2022-08-05T01:12:38.674Z,13.50
2022-08-05T01:22:02.282Z,13.40
2022-08-05T01:28:39.299Z,13.80
2022-08-05T01:31:56.463Z,13.90
2022-08-05T01:35:10.563Z,14.00
2022-08-05T01:38:31.106Z,14.20
2022-08-05T01:43:57.459Z,14.40
2022-08-05T01:46:42.061Z,14.50
2022-08-05T01:50:01.683Z,14.60
2022-08-05T01:56:09.885Z,14.80
2022-08-05T01:58:47.900Z,14.90
2022-08-05T02:01:28.122Z,15.00
2022-08-05T02:06:58.761Z,15.10
2022-08-05T02:15:49.492Z,15.40
2022-08-05T02:18:59.287Z,15.40
2022-08-05T02:21:49.283Z,15.50
2022-08-05T02:24:41.353Z,15.60
2022-08-05T02:30:35.948Z,15.80
2022-08-05T02:33:38.202Z,15.80
2022-08-05T02:39:14.191Z,15.90
2022-08-05T02:42:03.721Z,15.90
2022-08-05T02:44:50.767Z,16.00
2022-08-05T02:50:35.701Z,16.00
2022-08-05T02:53:19.599Z,15.70
2022-08-05T02:56:19.045Z,15.50
2022-08-05T03:01:52.344Z,15.30
2022-08-05T03:08:01.592Z,15.50
2022-08-05T03:11:01.335Z,15.60
2022-08-05T03:14:13.790Z,15.70
2022-08-05T03:19:52.081Z,16.00
2022-08-05T03:22:32.425Z,16.10
2022-08-05T03:28:14.842Z,16.20
2022-08-05T03:31:03.167Z,16.20
2022-08-05T03:33:50.956Z,16.10
2022-08-05T03:36:30.215Z,16.10
2022-08-05T03:39:08.126Z,15.90
2022-08-05T03:41:46.843Z,15.70
2022-08-05T03:44:20.853Z,15.40
2022-08-05T03:46:51.431Z,15.30
2022-08-05T03:49:30.829Z,15.30
2022-08-05T03:52:36.628Z,15.40
2022-08-05T03:56:10.874Z,15.50
2022-08-05T03:58:33.902Z,15.70
2022-08-05T04:01:08.839Z,15.80
2022-08-05T04:04:09.280Z,15.90
2022-08-05T04:06:51.279Z,16.00
2022-08-05T04:09:26.353Z,15.90
2022-08-05T04:12:01.939Z,15.80
2022-08-05T04:14:33.324Z,15.70
2022-08-05T04:17:05.488Z,15.70
2022-08-05T04:19:45.905Z,15.60
2022-08-05T04:22:24.688Z,15.50
2022-08-05T04:24:57.300Z,15.40
2022-08-05T04:27:41.788Z,15.50
2022-08-05T04:30:19.526Z,15.50
2022-08-05T04:32:49.813Z,15.40
2022-08-05T04:35:23.515Z,15.40
2022-08-05T04:38:01.627Z,15.30
2022-08-05T04:40:44.453Z,15.30
2022-08-05T04:43:18.300Z,15.20
2022-08-05T04:45:54.752Z,15.20
2022-08-05T04:48:27.543Z,15.10
2022-08-05T04:51:02.514Z,15.10
2022-08-05T04:53:36.364Z,15.00
2022-08-05T04:56:33.468Z,15.00
2022-08-05T04:59:01.443Z,15.00
2022-08-05T05:02:36.201Z,15.00
2022-08-05T05:04:47.717Z,15.00
2022-08-05T05:07:23.936Z,15.00
2022-08-05T05:10:01.995Z,14.90
2022-08-05T05:12:33.780Z,14.90
2022-08-05T05:15:10.765Z,14.70
2022-08-05T05:17:55.845Z,14.70
2022-08-05T05:20:28.715Z,14.60
2022-08-05T05:23:08.121Z,14.40
2022-08-05T05:25:41.281Z,14.30
2022-08-05T05:28:15.373Z,14.30
2022-08-05T05:30:49.667Z,14.30
2022-08-05T05:33:23.371Z,14.30
2022-08-05T05:35:54.351Z,14.30
2022-08-05T05:38:31.724Z,14.30
2022-08-05T05:41:02.340Z,14.30
2022-08-05T05:43:57.873Z,14.30
2022-08-05T05:46:24.467Z,14.20
2022-08-05T05:48:55.971Z,14.20
2022-08-05T05:51:29.681Z,14.20
2022-08-05T05:54:20.837Z,14.20
2022-08-05T05:56:51.614Z,14.10
2022-08-05T05:59:23.930Z,14.10
2022-08-05T06:01:59.413Z,14.00
2022-08-05T06:04:31.300Z,13.90
2022-08-05T06:07:02.881Z,14.00
2022-08-05T06:09:49.159Z,13.90
2022-08-05T06:12:24.449Z,13.90
2022-08-05T06:14:59.204Z,13.80
2022-08-05T06:17:31.405Z,13.80
2022-08-05T06:20:02.557Z,13.70
2022-08-05T06:22:36.696Z,13.70
2022-08-05T06:25:25.248Z,13.70
2022-08-05T06:28:11.370Z,13.60
2022-08-05T06:30:51.397Z,13.50
2022-08-05T06:33:33.275Z,13.50
2022-08-05T06:36:13.374Z,13.40
2022-08-05T06:38:47.311Z,13.30
2022-08-05T06:41:17.965Z,13.30
2022-08-05T06:43:58.550Z,13.30
2022-08-05T06:46:31.207Z,13.20
2022-08-05T06:49:05.730Z,13.20
2022-08-05T06:51:40.707Z,13.10
2022-08-05T06:54:12.127Z,13.10
2022-08-05T06:56:54.508Z,13.00
2022-08-05T06:59:42.375Z,12.90
2022-08-05T07:02:26.083Z,12.90
2022-08-05T07:05:01.738Z,12.80
2022-08-05T07:07:35.465Z,12.80
2022-08-05T07:10:14.949Z,12.70
2022-08-05T07:13:05.673Z,12.70
2022-08-05T07:16:00.947Z,12.60
2022-08-05T07:18:35.915Z,12.60
2022-08-05T07:21:08.404Z,12.50
2022-08-05T07:23:49.819Z,12.40
2022-08-05T07:26:22.942Z,12.40
2022-08-05T07:28:56.386Z,12.30
2022-08-05T07:31:40.768Z,12.30
2022-08-05T07:34:21.586Z,12.20
2022-08-05T07:36:59.063Z,12.20
2022-08-05T07:40:26.950Z,12.10
2022-08-05T07:42:31.857Z,12.10
2022-08-05T07:45:09.222Z,12.00
2022-08-05T07:47:42.623Z,11.90
2022-08-05T07:50:16.704Z,11.90
2022-08-05T07:52:49.644Z,11.90
2022-08-05T07:56:05.159Z,11.80
2022-08-05T07:58:11.433Z,11.70
2022-08-05T08:01:12.199Z,11.70
2022-08-05T08:03:45.175Z,11.60
2022-08-05T08:06:15.905Z,11.60
2022-08-05T08:08:46.658Z,11.60
2022-08-05T08:11:27.389Z,11.60
2022-08-05T08:14:07.759Z,11.60
2022-08-05T08:16:50.685Z,11.60
2022-08-05T08:20:10.856Z,11.50
2022-08-05T08:22:15.933Z,11.40
2022-08-05T08:24:51.907Z,11.40
2022-08-05T08:27:23.946Z,11.30
2022-08-05T08:30:30.111Z,11.20
2022-08-05T08:33:13.540Z,11.20
2022-08-05T08:35:53.190Z,11.10
2022-08-05T08:38:37.738Z,11.10
2022-08-05T08:41:17.030Z,11.10
2022-08-05T08:45:16.877Z,11.20
2022-08-05T08:46:45.026Z,11.20
2022-08-05T08:50:07.777Z,11.20
2022-08-05T08:52:23.422Z,11.20
2022-08-05T08:54:56.532Z,11.20
2022-08-05T08:57:42.268Z,11.30
2022-08-05T09:00:22.069Z,11.30
2022-08-05T09:02:54.566Z,11.30
2022-08-05T09:05:38.509Z,11.20
2022-08-05T09:08:30.095Z,11.20
2022-08-05T09:11:01.758Z,11.10
2022-08-05T09:14:00.978Z,11.10
2022-08-05T09:16:26.942Z,11.00
2022-08-05T09:18:59.519Z,11.00
2022-08-05T09:22:17.937Z,11.00
2022-08-05T09:24:23.238Z,11.00
2022-08-05T09:26:57.293Z,11.00
2022-08-05T09:29:47.994Z,10.90
2022-08-05T09:32:42.252Z,10.90
2022-08-05T09:35:26.444Z,10.90
2022-08-05T09:38:17.046Z,10.90
2022-08-05T09:40:52.182Z,10.90
2022-08-05T09:43:41.597Z,10.90
2022-08-05T09:46:30.956Z,10.90
2022-08-05T09:49:18.976Z,10.80
2022-08-05T09:51:50.496Z,10.80
2022-08-05T09:54:34.122Z,10.80
2022-08-05T09:57:05.385Z,10.80
2022-08-05T09:59:51.577Z,10.70
2022-08-05T10:02:39.859Z,10.70
2022-08-05T10:05:17.614Z,10.60
2022-08-05T10:08:35.509Z,10.60
2022-08-05T10:10:54.469Z,10.60
2022-08-05T10:13:47.671Z,10.60
2022-08-05T10:16:52.894Z,10.50
2022-08-05T10:19:59.175Z,10.50
2022-08-05T10:22:29.491Z,10.50
2022-08-05T10:25:02.485Z,10.50
2022-08-05T10:28:13.820Z,10.40
2022-08-05T10:32:48.281Z,10.40
2022-08-05T10:33:16.553Z,10.30
2022-08-05T10:35:52.544Z,10.30
2022-08-05T10:38:33.401Z,10.20
2022-08-05T10:41:46.994Z,10.30
2022-08-05T10:44:23.368Z,10.30
2022-08-05T10:47:00.053Z,10.30
2022-08-05T10:49:48.629Z,10.30
2022-08-05T10:52:49.528Z,10.30
2022-08-05T10:55:21.548Z,10.20
2022-08-05T10:58:11.449Z,10.20
2022-08-05T11:00:55.378Z,10.20
2022-08-05T11:03:33.881Z,10.10
2022-08-05T11:06:17.613Z,10.00
2022-08-05T11:09:32.188Z,10.00
2022-08-05T11:12:50.792Z,9.90
2022-08-05T11:16:00.850Z,9.80
2022-08-05T11:18:34.053Z,9.70
2022-08-05T11:21:11.353Z,9.60
2022-08-05T11:24:04.297Z,9.60
2022-08-05T11:26:49.394Z,9.50
2022-08-05T11:29:45.066Z,9.40
2022-08-05T11:32:32.425Z,9.30
2022-08-05T11:35:02.788Z,9.20
2022-08-05T11:38:27.790Z,9.20
2022-08-05T11:41:34.526Z,9.10
2022-08-05T11:44:40.885Z,9.10
2022-08-05T11:47:11.764Z,9.00
2022-08-05T11:49:51.162Z,9.00
2022-08-05T11:52:31.201Z,8.90
2022-08-05T11:55:07.386Z,8.90
2022-08-05T11:58:08.326Z,8.80
2022-08-05T12:00:31.815Z,8.70
2022-08-05T12:03:29.499Z,8.60
2022-08-05T12:06:06.216Z,8.60
2022-08-05T12:08:49.997Z,8.50
2022-08-05T12:11:40.589Z,8.40
2022-08-05T12:14:13.209Z,8.30
2022-08-05T12:16:50.125Z,8.20
2022-08-05T12:20:25.996Z,8.20
2022-08-05T12:22:14.748Z,8.10
2022-08-05T12:24:58.218Z,8.00
2022-08-05T12:27:33.648Z,8.00
2022-08-05T12:30:15.564Z,7.90
2022-08-05T12:32:58.512Z,8.00
2022-08-05T12:35:40.025Z,8.00
2022-08-05T12:40:58.826Z,8.30
2022-08-05T12:43:32.784Z,8.50
2022-08-05T12:46:12.585Z,8.80
2022-08-05T12:48:59.068Z,8.90
2022-08-05T12:52:13.675Z,9.10
2022-08-05T12:54:52.362Z,9.20
2022-08-05T13:02:03.552Z,9.30
2022-08-05T13:03:32.435Z,9.30
2022-08-05T13:06:30.771Z,9.30
2022-08-05T13:09:10.336Z,9.20
2022-08-05T13:12:03.005Z,9.20
2022-08-05T13:14:48.298Z,9.10
2022-08-05T13:17:41.725Z,9.10
2022-08-05T13:20:25.306Z,9.00
2022-08-05T13:23:01.396Z,8.90
2022-08-05T13:25:52.301Z,8.90
2022-08-05T13:28:33.515Z,8.80
2022-08-05T13:31:14.296Z,8.80
2022-08-05T13:34:21.550Z,8.80
2022-08-05T13:36:37.994Z,8.80
2022-08-05T13:40:13.776Z,8.80
2022-08-05T13:42:03.731Z,8.70
2022-08-05T13:44:35.970Z,8.80
2022-08-05T13:47:11.690Z,8.70
2022-08-05T13:50:04.354Z,8.70
2022-08-05T13:52:36.397Z,8.70
2022-08-05T13:55:09.599Z,8.70
2022-08-05T13:57:50.718Z,8.60
2022-08-05T14:00:27.961Z,8.60
2022-08-05T14:03:01.171Z,8.60
2022-08-05T14:06:24.595Z,8.60
2022-08-05T14:08:32.597Z,8.60
2022-08-05T14:11:20.326Z,8.60
2022-08-05T14:13:55.102Z,8.60
2022-08-05T14:16:28.594Z,8.70
2022-08-05T14:19:04.510Z,8.70
2022-08-05T14:22:10.245Z,8.70
2022-08-05T14:24:26.197Z,8.70
2022-08-05T14:27:17.240Z,8.70
2022-08-05T14:29:51.362Z,8.70
2022-08-05T14:32:26.932Z,8.80
2022-08-05T14:35:02.680Z,8.80
2022-08-05T14:37:45.683Z,8.80
2022-08-05T14:40:18.909Z,8.80
2022-08-05T14:42:49.591Z,8.80
2022-08-05T14:45:22.555Z,8.80
2022-08-05T14:48:03.183Z,8.80
2022-08-05T14:53:22.714Z,8.80
2022-08-05T14:56:03.827Z,8.90
2022-08-05T14:58:36.017Z,8.80
2022-08-05T15:01:16.249Z,8.90
2022-08-05T15:03:49.341Z,8.90
2022-08-05T15:06:27.979Z,8.90
2022-08-05T15:09:05.499Z,8.80
2022-08-05T15:11:51.956Z,8.80
2022-08-05T15:14:34.734Z,8.80
2022-08-05T15:19:57.558Z,8.80
2022-08-05T15:22:28.708Z,8.80
2022-08-05T15:25:11.814Z,8.70
2022-08-05T15:27:52.096Z,8.70
2022-08-05T15:30:24.388Z,8.70
2022-08-05T15:32:57.779Z,8.70
2022-08-05T15:35:36.280Z,8.60
2022-08-05T15:38:35.451Z,8.60
2022-08-05T15:41:23.120Z,8.60
2022-08-05T15:43:57.078Z,8.60
2022-08-05T15:46:28.157Z,8.60
2022-08-05T15:49:01.258Z,8.60
2022-08-05T15:52:10.104Z,8.60
2022-08-05T15:54:35.094Z,8.60
2022-08-05T15:57:09.452Z,8.60
2022-08-05T15:59:40.581Z,8.60
2022-08-05T16:02:19.819Z,8.60
2022-08-05T16:04:56.087Z,8.60
2022-08-05T16:07:29.554Z,8.60
2022-08-05T16:10:00.757Z,8.60
2022-08-05T16:12:32.583Z,8.60
2022-08-05T16:15:04.568Z,8.60
2022-08-05T16:17:37.005Z,8.60
2022-08-05T16:20:11.434Z,8.60
2022-08-05T16:22:43.997Z,8.60
2022-08-05T16:25:16.665Z,8.70
2022-08-05T16:28:02.197Z,8.70
2022-08-05T16:30:38.875Z,8.80
2022-08-05T16:33:12.662Z,8.80
2022-08-05T16:35:49.900Z,8.80
2022-08-05T16:38:28.036Z,8.80
2022-08-05T16:41:01.058Z,8.90
2022-08-05T16:43:35.209Z,8.90
2022-08-05T16:46:12.855Z,8.80
2022-08-05T16:48:55.575Z,8.80
2022-08-05T16:51:30.993Z,8.80
2022-08-05T16:54:26.247Z,8.80
2022-08-05T16:56:59.410Z,8.70
2022-08-05T16:59:30.853Z,8.70
2022-08-05T17:02:01.199Z,8.70
2022-08-05T17:04:31.970Z,8.60
2022-08-05T17:07:03.643Z,8.70
2022-08-05T17:09:58.009Z,8.60
2022-08-05T17:12:51.145Z,8.70
2022-08-05T17:15:20.602Z,8.70
2022-08-05T17:17:54.951Z,8.70
2022-08-05T17:20:26.691Z,8.70
2022-08-05T17:22:59.561Z,8.70
2022-08-05T17:25:34.166Z,8.60
2022-08-05T17:28:10.712Z,8.60
2022-08-05T17:30:52.162Z,8.60
2022-08-05T17:33:23.807Z,8.60
2022-08-05T17:36:08.369Z,8.60
2022-08-05T17:38:47.550Z,8.60
2022-08-05T17:42:16.654Z,8.60
2022-08-05T17:44:08.206Z,8.60
2022-08-05T17:46:41.502Z,8.60
2022-08-05T17:49:13.092Z,8.60
2022-08-05T17:51:46.105Z,8.60
2022-08-05T17:54:23.513Z,8.60
2022-08-05T17:56:53.852Z,8.60
2022-08-05T17:59:24.124Z,8.60
2022-08-05T18:01:54.528Z,8.60
2022-08-05T18:04:26.820Z,8.60
2022-08-05T18:07:00.539Z,8.50
2022-08-05T18:09:59.673Z,8.60
2022-08-05T18:12:24.707Z,8.60
2022-08-05T18:14:55.318Z,8.60
2022-08-05T18:18:00.131Z,8.60
2022-08-05T18:20:17.795Z,8.60
2022-08-05T18:22:54.644Z,8.60
2022-08-05T18:25:32.698Z,8.50
2022-08-05T18:28:04.939Z,8.60
2022-08-05T18:30:39.146Z,8.60
2022-08-05T18:33:13.723Z,8.50
2022-08-05T18:36:01.350Z,8.60
2022-08-05T18:38:37.820Z,8.60
2022-08-05T18:41:56.033Z,8.60
2022-08-05T18:44:06.429Z,8.60
2022-08-05T18:46:41.114Z,8.70
2022-08-05T18:49:44.563Z,8.70
2022-08-05T18:52:51.485Z,8.70
2022-08-05T18:55:22.981Z,8.70
2022-08-05T18:58:02.992Z,8.60
2022-08-05T19:00:34.749Z,8.60
2022-08-05T19:03:05.187Z,8.70
2022-08-05T19:06:13.288Z,8.70
2022-08-05T19:08:30.578Z,8.70
2022-08-05T19:11:02.874Z,8.70
2022-08-05T19:13:36.858Z,8.80
2022-08-05T19:16:24.905Z,8.70
2022-08-05T19:19:00.352Z,8.80
2022-08-05T19:21:34.507Z,8.80
2022-08-05T19:24:12.325Z,8.80
2022-08-05T19:26:55.443Z,8.80
2022-08-05T19:29:35.769Z,8.80
2022-08-05T19:32:11.346Z,8.80
2022-08-05T19:34:54.855Z,8.80
2022-08-05T19:37:29.857Z,8.80
2022-08-05T19:40:18.030Z,8.80
2022-08-05T19:43:00.790Z,8.80
2022-08-05T19:45:36.968Z,8.80
2022-08-05T19:48:14.376Z,8.80
2022-08-05T19:50:46.781Z,8.70
2022-08-05T19:53:17.096Z,8.80
2022-08-05T19:56:14.155Z,8.80
2022-08-05T19:58:53.305Z,8.80
2022-08-05T20:01:28.468Z,8.80
2022-08-05T20:03:59.434Z,8.80
2022-08-05T20:06:30.730Z,8.80
2022-08-05T20:09:13.939Z,8.80
2022-08-05T20:11:48.073Z,8.70
2022-08-05T20:14:27.106Z,8.80
2022-08-05T20:17:01.725Z,8.80
2022-08-05T20:19:35.955Z,8.80
2022-08-05T20:22:09.530Z,8.80
2022-08-05T20:24:40.430Z,8.80
2022-08-05T20:27:11.765Z,8.70
2022-08-05T20:29:52.237Z,8.80
2022-08-05T20:32:29.881Z,8.80
2022-08-05T20:35:00.229Z,8.80
2022-08-05T20:38:05.682Z,8.80
2022-08-05T20:40:21.338Z,8.80
2022-08-05T20:42:51.805Z,8.80
2022-08-05T20:45:22.546Z,8.80
2022-08-05T20:48:13.207Z,8.80
2022-08-05T20:50:46.900Z,8.80
2022-08-05T20:53:36.951Z,8.80
2022-08-05T20:56:09.499Z,8.70
2022-08-05T20:58:40.449Z,8.80
2022-08-05T21:01:10.791Z,8.80
2022-08-05T21:03:48.895Z,8.80
2022-08-05T21:06:27.591Z,8.80
2022-08-05T21:09:01.965Z,8.70
2022-08-05T21:12:06.568Z,8.80
2022-08-05T21:14:22.953Z,8.70
2022-08-05T21:16:56.980Z,8.70
2022-08-05T21:19:27.284Z,8.70
2022-08-05T21:22:00.110Z,8.70
2022-08-05T21:24:31.372Z,8.70
2022-08-05T21:27:01.850Z,8.70
2022-08-05T21:29:32.595Z,8.70
2022-08-05T21:32:11.153Z,8.80
2022-08-05T21:35:06.901Z,8.80
2022-08-05T21:37:41.056Z,8.80
2022-08-05T21:40:14.033Z,8.80
2022-08-05T21:42:45.780Z,8.90
2022-08-05T21:45:24.439Z,8.90
2022-08-05T21:48:08.395Z,8.90
2022-08-05T21:50:39.156Z,8.90
2022-08-05T21:53:17.456Z,9.00
2022-08-05T21:56:05.354Z,9.00
2022-08-05T21:58:42.245Z,8.90
2022-08-05T22:01:24.024Z,8.90
2022-08-05T22:03:56.561Z,9.00
2022-08-05T22:06:37.014Z,8.90
2022-08-05T22:09:13.329Z,8.90
2022-08-05T22:11:46.764Z,8.90
2022-08-05T22:14:35.579Z,8.90
2022-08-05T22:17:09.267Z,8.90
2022-08-05T22:20:03.454Z,9.00
2022-08-05T22:22:31.293Z,9.10
2022-08-05T22:25:27.423Z,9.20
2022-08-05T22:28:08.147Z,9.20
2022-08-05T22:30:55.893Z,9.30
2022-08-05T22:33:56.705Z,9.30
2022-08-05T22:36:19.041Z,9.30
2022-08-05T22:38:54.599Z,9.30
2022-08-05T22:41:26.378Z,9.20
2022-08-05T22:44:18.936Z,9.20
2022-08-05T22:46:49.484Z,9.20
2022-08-05T22:49:56.261Z,9.20
2022-08-05T22:52:15.405Z,9.20
2022-08-05T22:55:00.814Z,9.30
2022-08-05T22:57:34.361Z,9.30
2022-08-05T23:00:09.799Z,9.40
2022-08-05T23:02:46.576Z,9.40
2022-08-05T23:05:18.662Z,9.50
2022-08-05T23:07:50.351Z,9.60
2022-08-05T23:10:24.384Z,9.70
2022-08-05T23:12:56.181Z,9.70
2022-08-05T23:15:34.926Z,9.70
2022-08-05T23:18:15.819Z,9.80
2022-08-05T23:20:47.732Z,9.80
2022-08-05T23:23:19.153Z,9.90
2022-08-05T23:25:51.634Z,9.90
2022-08-05T23:28:30.777Z,9.90
2022-08-05T23:31:16.046Z,10.00
2022-08-05T23:34:04.732Z,10.10
2022-08-05T23:36:44.320Z,10.00
2022-08-05T23:39:23.626Z,10.00
2022-08-05T23:42:02.926Z,10.00
2022-08-05T23:44:34.028Z,10.00
2022-08-05T23:47:14.442Z,9.90
2022-08-05T23:49:49.079Z,9.90
2022-08-05T23:52:28.743Z,9.90
2022-08-05T23:55:09.246Z,9.80
2022-08-05T23:57:41.450Z,9.80
